sensor_id;sensor_type;location;lat;lon;timestamp;P1;durP1;ratioP1;P2;durP2;ratioP2
20623;SDS011;10471;42.736;23.346;2024-01-25T00:01:26;31.27;;;18.00;;
20623;SDS011;10471;42.736;23.346;2024-01-25T00:03:51;32.93;;;17.13;;
20623;SDS011;10471;42.736;23.346;2024-01-25T00:06:16;50.90;;;22.87;;
20623;SDS011;10471;42.736;23.346;2024-01-25T00:08:42;38.63;;;18.47;;
20623;SDS011;10471;42.736;23.346;2024-01-25T00:11:07;30.63;;;16.37;;
20623;SDS011;10471;42.736;23.346;2024-01-25T00:13:34;35.60;;;17.93;;
20623;SDS011;10471;42.736;23.346;2024-01-25T00:15:59;27.17;;;13.77;;
20623;SDS011;10471;42.736;23.346;2024-01-25T00:18:25;61.90;;;25.03;;
20623;SDS011;10471;42.736;23.346;2024-01-25T00:20:50;28.20;;;14.30;;
20623;SDS011;10471;42.736;23.346;2024-01-25T00:23:16;28.20;;;14.60;;
20623;SDS011;10471;42.736;23.346;2024-01-25T00:25:42;26.03;;;14.53;;
20623;SDS011;10471;42.736;23.346;2024-01-25T00:28:07;28.57;;;15.20;;
20623;SDS011;10471;42.736;23.346;2024-01-25T00:30:32;25.43;;;15.43;;
20623;SDS011;10471;42.736;23.346;2024-01-25T00:32:58;26.87;;;15.60;;
20623;SDS011;10471;42.736;23.346;2024-01-25T00:35:23;31.17;;;16.70;;
20623;SDS011;10471;42.736;23.346;2024-01-25T00:37:49;30.03;;;16.10;;
20623;SDS011;10471;42.736;23.346;2024-01-25T00:40:15;29.40;;;14.90;;
20623;SDS011;10471;42.736;23.346;2024-01-25T00:42:42;40.30;;;20.43;;
20623;SDS011;10471;42.736;23.346;2024-01-25T00:45:09;48.53;;;24.13;;
20623;SDS011;10471;42.736;23.346;2024-01-25T00:47:36;32.30;;;17.87;;
20623;SDS011;10471;42.736;23.346;2024-01-25T00:50:02;30.93;;;17.97;;
20623;SDS011;10471;42.736;23.346;2024-01-25T00:52:29;32.10;;;16.23;;
20623;SDS011;10471;42.736;23.346;2024-01-25T00:54:55;18.83;;;11.70;;
20623;SDS011;10471;42.736;23.346;2024-01-25T00:57:20;24.50;;;12.17;;
20623;SDS011;10471;42.736;23.346;2024-01-25T00:59:46;25.07;;;12.47;;
20623;SDS011;10471;42.736;23.346;2024-01-25T01:02:12;20.90;;;11.53;;
20623;SDS011;10471;42.736;23.346;2024-01-25T01:04:39;25.33;;;12.83;;
20623;SDS011;10471;42.736;23.346;2024-01-25T01:07:05;19.43;;;9.60;;
20623;SDS011;10471;42.736;23.346;2024-01-25T01:09:31;18.03;;;9.83;;
20623;SDS011;10471;42.736;23.346;2024-01-25T01:11:56;14.50;;;8.20;;
20623;SDS011;10471;42.736;23.346;2024-01-25T01:14:22;16.17;;;8.20;;
20623;SDS011;10471;42.736;23.346;2024-01-25T01:16:47;22.03;;;11.60;;
20623;SDS011;10471;42.736;23.346;2024-01-25T01:19:12;15.23;;;8.03;;
20623;SDS011;10471;42.736;23.346;2024-01-25T01:21:38;11.47;;;8.00;;
20623;SDS011;10471;42.736;23.346;2024-01-25T01:24:06;14.50;;;8.33;;
20623;SDS011;10471;42.736;23.346;2024-01-25T01:26:31;10.43;;;7.07;;
20623;SDS011;10471;42.736;23.346;2024-01-25T01:28:56;23.13;;;12.50;;
20623;SDS011;10471;42.736;23.346;2024-01-25T01:31:22;13.67;;;8.80;;
20623;SDS011;10471;42.736;23.346;2024-01-25T01:33:47;14.70;;;8.70;;
20623;SDS011;10471;42.736;23.346;2024-01-25T01:36:13;16.37;;;8.60;;
20623;SDS011;10471;42.736;23.346;2024-01-25T01:38:38;17.60;;;8.17;;
20623;SDS011;10471;42.736;23.346;2024-01-25T01:41:04;14.63;;;8.87;;
20623;SDS011;10471;42.736;23.346;2024-01-25T01:43:29;18.13;;;9.17;;
20623;SDS011;10471;42.736;23.346;2024-01-25T01:45:55;15.03;;;8.63;;
20623;SDS011;10471;42.736;23.346;2024-01-25T01:48:29;13.83;;;7.97;;
20623;SDS011;10471;42.736;23.346;2024-01-25T01:50:54;15.57;;;8.10;;
20623;SDS011;10471;42.736;23.346;2024-01-25T01:53:20;15.37;;;8.60;;
20623;SDS011;10471;42.736;23.346;2024-01-25T01:55:46;12.57;;;8.00;;
20623;SDS011;10471;42.736;23.346;2024-01-25T01:58:12;15.20;;;8.47;;
20623;SDS011;10471;42.736;23.346;2024-01-25T02:00:38;19.63;;;9.67;;
20623;SDS011;10471;42.736;23.346;2024-01-25T02:03:06;34.77;;;20.50;;
20623;SDS011;10471;42.736;23.346;2024-01-25T02:05:31;17.50;;;8.80;;
20623;SDS011;10471;42.736;23.346;2024-01-25T02:07:57;15.00;;;8.57;;
20623;SDS011;10471;42.736;23.346;2024-01-25T02:10:22;14.80;;;8.33;;
20623;SDS011;10471;42.736;23.346;2024-01-25T02:12:47;17.57;;;9.27;;
20623;SDS011;10471;42.736;23.346;2024-01-25T02:15:13;30.33;;;16.17;;
20623;SDS011;10471;42.736;23.346;2024-01-25T02:17:38;23.17;;;12.93;;
20623;SDS011;10471;42.736;23.346;2024-01-25T02:20:04;27.33;;;14.20;;
20623;SDS011;10471;42.736;23.346;2024-01-25T02:22:30;23.90;;;12.83;;
20623;SDS011;10471;42.736;23.346;2024-01-25T02:24:56;22.00;;;12.93;;
20623;SDS011;10471;42.736;23.346;2024-01-25T02:27:21;23.47;;;12.80;;
20623;SDS011;10471;42.736;23.346;2024-01-25T02:29:46;21.80;;;12.33;;
20623;SDS011;10471;42.736;23.346;2024-01-25T02:32:12;29.00;;;15.90;;
20623;SDS011;10471;42.736;23.346;2024-01-25T02:34:37;29.90;;;15.03;;
20623;SDS011;10471;42.736;23.346;2024-01-25T02:37:02;25.50;;;13.40;;
20623;SDS011;10471;42.736;23.346;2024-01-25T02:39:28;17.40;;;9.27;;
20623;SDS011;10471;42.736;23.346;2024-01-25T02:41:53;15.40;;;8.37;;
20623;SDS011;10471;42.736;23.346;2024-01-25T02:44:19;13.03;;;7.13;;
20623;SDS011;10471;42.736;23.346;2024-01-25T02:46:44;14.67;;;7.07;;
20623;SDS011;10471;42.736;23.346;2024-01-25T02:49:11;13.80;;;7.57;;
20623;SDS011;10471;42.736;23.346;2024-01-25T02:51:36;12.80;;;7.93;;
20623;SDS011;10471;42.736;23.346;2024-01-25T02:54:02;14.97;;;7.33;;
20623;SDS011;10471;42.736;23.346;2024-01-25T02:56:27;14.37;;;6.67;;
20623;SDS011;10471;42.736;23.346;2024-01-25T02:58:58;10.13;;;6.10;;
20623;SDS011;10471;42.736;23.346;2024-01-25T03:01:24;10.00;;;5.27;;
20623;SDS011;10471;42.736;23.346;2024-01-25T03:03:49;13.70;;;6.90;;
20623;SDS011;10471;42.736;23.346;2024-01-25T03:06:15;9.87;;;6.20;;
20623;SDS011;10471;42.736;23.346;2024-01-25T03:08:40;24.43;;;13.63;;
20623;SDS011;10471;42.736;23.346;2024-01-25T03:11:05;11.30;;;7.37;;
20623;SDS011;10471;42.736;23.346;2024-01-25T03:13:31;11.80;;;7.47;;
20623;SDS011;10471;42.736;23.346;2024-01-25T03:15:56;13.03;;;6.50;;
20623;SDS011;10471;42.736;23.346;2024-01-25T03:18:22;11.23;;;6.97;;
20623;SDS011;10471;42.736;23.346;2024-01-25T03:20:47;13.93;;;7.60;;
20623;SDS011;10471;42.736;23.346;2024-01-25T03:23:15;13.40;;;7.20;;
20623;SDS011;10471;42.736;23.346;2024-01-25T03:25:41;8.23;;;4.57;;
20623;SDS011;10471;42.736;23.346;2024-01-25T03:28:06;10.43;;;5.17;;
20623;SDS011;10471;42.736;23.346;2024-01-25T03:30:34;8.07;;;4.20;;
20623;SDS011;10471;42.736;23.346;2024-01-25T03:32:59;14.67;;;6.80;;
20623;SDS011;10471;42.736;23.346;2024-01-25T03:35:25;10.33;;;5.30;;
20623;SDS011;10471;42.736;23.346;2024-01-25T03:37:50;11.83;;;7.00;;
20623;SDS011;10471;42.736;23.346;2024-01-25T03:40:16;11.10;;;5.30;;
20623;SDS011;10471;42.736;23.346;2024-01-25T03:42:41;9.57;;;4.23;;
20623;SDS011;10471;42.736;23.346;2024-01-25T03:45:07;8.97;;;4.20;;
20623;SDS011;10471;42.736;23.346;2024-01-25T03:47:32;19.43;;;9.63;;
20623;SDS011;10471;42.736;23.346;2024-01-25T03:49:57;23.30;;;11.27;;
20623;SDS011;10471;42.736;23.346;2024-01-25T03:52:24;21.43;;;9.47;;
20623;SDS011;10471;42.736;23.346;2024-01-25T03:54:50;13.17;;;5.97;;
20623;SDS011;10471;42.736;23.346;2024-01-25T03:57:15;10.97;;;5.73;;
20623;SDS011;10471;42.736;23.346;2024-01-25T03:59:41;10.63;;;4.40;;
20623;SDS011;10471;42.736;23.346;2024-01-25T04:02:06;6.10;;;3.50;;
20623;SDS011;10471;42.736;23.346;2024-01-25T04:04:31;9.07;;;3.83;;
20623;SDS011;10471;42.736;23.346;2024-01-25T04:06:56;6.50;;;3.43;;
20623;SDS011;10471;42.736;23.346;2024-01-25T04:09:22;6.13;;;3.40;;
20623;SDS011;10471;42.736;23.346;2024-01-25T04:11:48;6.17;;;3.63;;
20623;SDS011;10471;42.736;23.346;2024-01-25T04:14:13;6.07;;;3.10;;
20623;SDS011;10471;42.736;23.346;2024-01-25T04:16:39;5.87;;;3.40;;
20623;SDS011;10471;42.736;23.346;2024-01-25T04:19:05;7.33;;;3.60;;
20623;SDS011;10471;42.736;23.346;2024-01-25T04:21:31;6.57;;;2.93;;
20623;SDS011;10471;42.736;23.346;2024-01-25T04:23:56;4.90;;;2.80;;
20623;SDS011;10471;42.736;23.346;2024-01-25T04:26:21;5.83;;;3.47;;
20623;SDS011;10471;42.736;23.346;2024-01-25T04:28:47;5.13;;;3.67;;
20623;SDS011;10471;42.736;23.346;2024-01-25T04:31:12;6.63;;;4.20;;
20623;SDS011;10471;42.736;23.346;2024-01-25T04:33:38;8.27;;;4.13;;
20623;SDS011;10471;42.736;23.346;2024-01-25T04:36:04;11.10;;;5.10;;
20623;SDS011;10471;42.736;23.346;2024-01-25T04:38:29;10.10;;;4.53;;
20623;SDS011;10471;42.736;23.346;2024-01-25T04:40:55;8.17;;;4.40;;
20623;SDS011;10471;42.736;23.346;2024-01-25T04:43:20;6.40;;;3.93;;
20623;SDS011;10471;42.736;23.346;2024-01-25T04:45:45;6.07;;;3.80;;
20623;SDS011;10471;42.736;23.346;2024-01-25T04:48:11;5.97;;;3.27;;
20623;SDS011;10471;42.736;23.346;2024-01-25T04:50:36;5.80;;;3.27;;
20623;SDS011;10471;42.736;23.346;2024-01-25T04:53:02;6.20;;;3.60;;
20623;SDS011;10471;42.736;23.346;2024-01-25T04:55:27;6.40;;;3.20;;
20623;SDS011;10471;42.736;23.346;2024-01-25T04:57:53;8.53;;;3.90;;
20623;SDS011;10471;42.736;23.346;2024-01-25T05:00:18;6.27;;;3.10;;
20623;SDS011;10471;42.736;23.346;2024-01-25T05:02:46;5.30;;;3.60;;
20623;SDS011;10471;42.736;23.346;2024-01-25T05:05:12;18.27;;;7.60;;
20623;SDS011;10471;42.736;23.346;2024-01-25T05:07:37;9.43;;;4.70;;
20623;SDS011;10471;42.736;23.346;2024-01-25T05:10:03;7.50;;;3.43;;
20623;SDS011;10471;42.736;23.346;2024-01-25T05:12:28;8.77;;;4.07;;
20623;SDS011;10471;42.736;23.346;2024-01-25T05:14:54;9.47;;;3.90;;
20623;SDS011;10471;42.736;23.346;2024-01-25T05:17:19;5.03;;;3.13;;
20623;SDS011;10471;42.736;23.346;2024-01-25T05:19:44;7.80;;;3.57;;
20623;SDS011;10471;42.736;23.346;2024-01-25T05:22:10;5.47;;;3.20;;
20623;SDS011;10471;42.736;23.346;2024-01-25T05:24:35;8.33;;;3.87;;
20623;SDS011;10471;42.736;23.346;2024-01-25T05:27:01;7.20;;;4.23;;
20623;SDS011;10471;42.736;23.346;2024-01-25T05:29:27;10.33;;;3.70;;
20623;SDS011;10471;42.736;23.346;2024-01-25T05:31:52;6.60;;;3.80;;
20623;SDS011;10471;42.736;23.346;2024-01-25T05:34:17;4.80;;;3.03;;
20623;SDS011;10471;42.736;23.346;2024-01-25T05:36:43;6.30;;;3.30;;
20623;SDS011;10471;42.736;23.346;2024-01-25T05:39:08;6.93;;;3.83;;
20623;SDS011;10471;42.736;23.346;2024-01-25T05:41:34;6.17;;;3.33;;
20623;SDS011;10471;42.736;23.346;2024-01-25T05:43:59;6.87;;;3.60;;
20623;SDS011;10471;42.736;23.346;2024-01-25T05:46:25;7.90;;;3.83;;
20623;SDS011;10471;42.736;23.346;2024-01-25T05:48:51;7.57;;;3.50;;
20623;SDS011;10471;42.736;23.346;2024-01-25T05:51:16;6.97;;;4.17;;
20623;SDS011;10471;42.736;23.346;2024-01-25T05:53:42;8.80;;;4.47;;
20623;SDS011;10471;42.736;23.346;2024-01-25T05:56:08;8.50;;;4.13;;
20623;SDS011;10471;42.736;23.346;2024-01-25T05:58:33;6.90;;;3.90;;
20623;SDS011;10471;42.736;23.346;2024-01-25T06:00:58;6.90;;;4.40;;
20623;SDS011;10471;42.736;23.346;2024-01-25T06:03:24;11.17;;;4.47;;
20623;SDS011;10471;42.736;23.346;2024-01-25T06:05:49;8.50;;;4.30;;
20623;SDS011;10471;42.736;23.346;2024-01-25T06:08:14;7.63;;;4.20;;
20623;SDS011;10471;42.736;23.346;2024-01-25T06:10:40;8.33;;;3.90;;
20623;SDS011;10471;42.736;23.346;2024-01-25T06:13:05;6.17;;;3.90;;
20623;SDS011;10471;42.736;23.346;2024-01-25T06:15:30;9.13;;;4.30;;
20623;SDS011;10471;42.736;23.346;2024-01-25T06:17:56;6.23;;;3.60;;
20623;SDS011;10471;42.736;23.346;2024-01-25T06:20:22;8.60;;;4.03;;
20623;SDS011;10471;42.736;23.346;2024-01-25T06:22:47;9.67;;;4.50;;
20623;SDS011;10471;42.736;23.346;2024-01-25T06:25:13;9.30;;;5.53;;
20623;SDS011;10471;42.736;23.346;2024-01-25T06:27:39;13.17;;;5.80;;
20623;SDS011;10471;42.736;23.346;2024-01-25T06:30:05;11.77;;;6.37;;
20623;SDS011;10471;42.736;23.346;2024-01-25T06:32:30;17.73;;;7.40;;
20623;SDS011;10471;42.736;23.346;2024-01-25T06:34:56;12.60;;;6.50;;
20623;SDS011;10471;42.736;23.346;2024-01-25T06:37:21;10.90;;;5.90;;
20623;SDS011;10471;42.736;23.346;2024-01-25T06:39:47;11.57;;;5.90;;
20623;SDS011;10471;42.736;23.346;2024-01-25T06:42:12;11.73;;;5.93;;
20623;SDS011;10471;42.736;23.346;2024-01-25T06:44:38;13.60;;;7.73;;
20623;SDS011;10471;42.736;23.346;2024-01-25T06:47:03;10.90;;;6.03;;
20623;SDS011;10471;42.736;23.346;2024-01-25T06:49:29;11.73;;;6.07;;
20623;SDS011;10471;42.736;23.346;2024-01-25T06:51:54;9.30;;;5.87;;
20623;SDS011;10471;42.736;23.346;2024-01-25T06:54:20;10.17;;;4.40;;
20623;SDS011;10471;42.736;23.346;2024-01-25T06:56:45;9.57;;;3.93;;
20623;SDS011;10471;42.736;23.346;2024-01-25T06:59:10;8.43;;;4.20;;
20623;SDS011;10471;42.736;23.346;2024-01-25T07:01:36;16.73;;;6.97;;
20623;SDS011;10471;42.736;23.346;2024-01-25T07:04:01;10.73;;;5.33;;
20623;SDS011;10471;42.736;23.346;2024-01-25T07:06:28;9.27;;;5.00;;
20623;SDS011;10471;42.736;23.346;2024-01-25T07:08:54;7.37;;;4.20;;
20623;SDS011;10471;42.736;23.346;2024-01-25T07:11:19;7.33;;;4.80;;
20623;SDS011;10471;42.736;23.346;2024-01-25T07:13:44;9.17;;;5.50;;
20623;SDS011;10471;42.736;23.346;2024-01-25T07:16:10;10.03;;;5.47;;
20623;SDS011;10471;42.736;23.346;2024-01-25T07:18:35;8.33;;;4.40;;
20623;SDS011;10471;42.736;23.346;2024-01-25T07:21:01;8.60;;;4.27;;
20623;SDS011;10471;42.736;23.346;2024-01-25T07:23:28;10.00;;;4.20;;
20623;SDS011;10471;42.736;23.346;2024-01-25T07:25:58;11.33;;;5.13;;
20623;SDS011;10471;42.736;23.346;2024-01-25T07:28:23;9.80;;;4.30;;
20623;SDS011;10471;42.736;23.346;2024-01-25T07:30:50;9.80;;;6.00;;
20623;SDS011;10471;42.736;23.346;2024-01-25T07:33:16;12.80;;;6.07;;
20623;SDS011;10471;42.736;23.346;2024-01-25T07:35:41;14.77;;;8.10;;
20623;SDS011;10471;42.736;23.346;2024-01-25T07:38:11;13.77;;;7.07;;
20623;SDS011;10471;42.736;23.346;2024-01-25T07:40:36;11.57;;;4.47;;
20623;SDS011;10471;42.736;23.346;2024-01-25T07:43:02;11.90;;;5.20;;
20623;SDS011;10471;42.736;23.346;2024-01-25T07:45:28;8.77;;;4.33;;
20623;SDS011;10471;42.736;23.346;2024-01-25T07:47:53;9.67;;;4.27;;
20623;SDS011;10471;42.736;23.346;2024-01-25T07:50:18;9.03;;;4.70;;
20623;SDS011;10471;42.736;23.346;2024-01-25T07:52:44;16.87;;;6.80;;
20623;SDS011;10471;42.736;23.346;2024-01-25T07:55:09;13.57;;;5.93;;
20623;SDS011;10471;42.736;23.346;2024-01-25T07:57:35;11.60;;;5.30;;
20623;SDS011;10471;42.736;23.346;2024-01-25T08:00:00;15.77;;;7.90;;
20623;SDS011;10471;42.736;23.346;2024-01-25T08:02:26;9.97;;;4.80;;
20623;SDS011;10471;42.736;23.346;2024-01-25T08:04:51;9.40;;;4.30;;
20623;SDS011;10471;42.736;23.346;2024-01-25T08:07:17;10.53;;;4.47;;
20623;SDS011;10471;42.736;23.346;2024-01-25T08:09:43;18.07;;;5.40;;
20623;SDS011;10471;42.736;23.346;2024-01-25T08:12:08;13.13;;;4.87;;
20623;SDS011;10471;42.736;23.346;2024-01-25T08:14:33;12.87;;;5.50;;
20623;SDS011;10471;42.736;23.346;2024-01-25T08:16:59;12.70;;;5.60;;
20623;SDS011;10471;42.736;23.346;2024-01-25T08:19:25;10.87;;;5.80;;
20623;SDS011;10471;42.736;23.346;2024-01-25T08:21:50;11.67;;;5.13;;
20623;SDS011;10471;42.736;23.346;2024-01-25T08:24:15;11.63;;;5.93;;
20623;SDS011;10471;42.736;23.346;2024-01-25T08:26:41;14.07;;;5.80;;
20623;SDS011;10471;42.736;23.346;2024-01-25T08:29:06;13.83;;;5.73;;
20623;SDS011;10471;42.736;23.346;2024-01-25T08:31:32;15.63;;;6.10;;
20623;SDS011;10471;42.736;23.346;2024-01-25T08:33:57;13.63;;;5.63;;
20623;SDS011;10471;42.736;23.346;2024-01-25T08:36:22;15.13;;;6.10;;
20623;SDS011;10471;42.736;23.346;2024-01-25T08:38:49;13.10;;;5.30;;
20623;SDS011;10471;42.736;23.346;2024-01-25T08:41:15;9.13;;;5.03;;
20623;SDS011;10471;42.736;23.346;2024-01-25T08:43:41;11.77;;;5.97;;
20623;SDS011;10471;42.736;23.346;2024-01-25T08:46:07;13.20;;;5.97;;
20623;SDS011;10471;42.736;23.346;2024-01-25T08:48:33;11.43;;;5.63;;
20623;SDS011;10471;42.736;23.346;2024-01-25T08:50:59;15.37;;;6.73;;
20623;SDS011;10471;42.736;23.346;2024-01-25T08:53:24;12.30;;;5.80;;
20623;SDS011;10471;42.736;23.346;2024-01-25T08:55:53;15.53;;;6.50;;
20623;SDS011;10471;42.736;23.346;2024-01-25T08:58:18;16.73;;;7.90;;
20623;SDS011;10471;42.736;23.346;2024-01-25T09:00:45;18.67;;;7.30;;
20623;SDS011;10471;42.736;23.346;2024-01-25T09:03:10;11.63;;;5.50;;
20623;SDS011;10471;42.736;23.346;2024-01-25T09:05:36;13.60;;;5.43;;
20623;SDS011;10471;42.736;23.346;2024-01-25T09:08:05;11.07;;;5.20;;
20623;SDS011;10471;42.736;23.346;2024-01-25T09:10:31;11.30;;;4.63;;
20623;SDS011;10471;42.736;23.346;2024-01-25T09:12:56;10.07;;;4.07;;
20623;SDS011;10471;42.736;23.346;2024-01-25T09:15:22;10.87;;;4.33;;
20623;SDS011;10471;42.736;23.346;2024-01-25T09:17:47;10.57;;;4.03;;
20623;SDS011;10471;42.736;23.346;2024-01-25T09:20:12;10.87;;;4.23;;
20623;SDS011;10471;42.736;23.346;2024-01-25T09:22:38;12.53;;;4.57;;
20623;SDS011;10471;42.736;23.346;2024-01-25T09:25:03;8.97;;;4.63;;
20623;SDS011;10471;42.736;23.346;2024-01-25T09:27:29;7.97;;;3.83;;
20623;SDS011;10471;42.736;23.346;2024-01-25T09:29:55;11.27;;;4.27;;
20623;SDS011;10471;42.736;23.346;2024-01-25T09:32:20;16.53;;;5.13;;
20623;SDS011;10471;42.736;23.346;2024-01-25T09:34:45;13.27;;;5.03;;
20623;SDS011;10471;42.736;23.346;2024-01-25T09:37:11;11.43;;;4.97;;
20623;SDS011;10471;42.736;23.346;2024-01-25T09:39:36;11.17;;;4.83;;
20623;SDS011;10471;42.736;23.346;2024-01-25T09:42:05;11.70;;;5.13;;
20623;SDS011;10471;42.736;23.346;2024-01-25T09:44:31;13.97;;;5.43;;
20623;SDS011;10471;42.736;23.346;2024-01-25T09:46:56;12.20;;;4.63;;
20623;SDS011;10471;42.736;23.346;2024-01-25T09:49:22;13.33;;;5.43;;
20623;SDS011;10471;42.736;23.346;2024-01-25T09:51:49;16.37;;;6.30;;
20623;SDS011;10471;42.736;23.346;2024-01-25T09:54:16;13.03;;;4.80;;
20623;SDS011;10471;42.736;23.346;2024-01-25T09:56:42;11.30;;;4.60;;
20623;SDS011;10471;42.736;23.346;2024-01-25T09:59:08;8.53;;;4.30;;
20623;SDS011;10471;42.736;23.346;2024-01-25T10:01:34;13.60;;;5.70;;
20623;SDS011;10471;42.736;23.346;2024-01-25T10:03:59;13.63;;;6.30;;
20623;SDS011;10471;42.736;23.346;2024-01-25T10:06:25;11.33;;;5.80;;
20623;SDS011;10471;42.736;23.346;2024-01-25T10:08:51;14.07;;;5.83;;
20623;SDS011;10471;42.736;23.346;2024-01-25T10:11:18;11.40;;;5.10;;
20623;SDS011;10471;42.736;23.346;2024-01-25T10:13:44;12.90;;;5.00;;
20623;SDS011;10471;42.736;23.346;2024-01-25T10:16:14;10.67;;;4.87;;
20623;SDS011;10471;42.736;23.346;2024-01-25T10:18:40;14.67;;;5.03;;
20623;SDS011;10471;42.736;23.346;2024-01-25T10:21:09;12.87;;;5.93;;
20623;SDS011;10471;42.736;23.346;2024-01-25T10:23:35;14.90;;;6.53;;
20623;SDS011;10471;42.736;23.346;2024-01-25T10:26:00;10.37;;;5.30;;
20623;SDS011;10471;42.736;23.346;2024-01-25T10:28:26;14.13;;;5.50;;
20623;SDS011;10471;42.736;23.346;2024-01-25T10:30:55;12.17;;;5.33;;
20623;SDS011;10471;42.736;23.346;2024-01-25T10:33:22;13.40;;;4.90;;
20623;SDS011;10471;42.736;23.346;2024-01-25T10:35:51;12.00;;;4.60;;
20623;SDS011;10471;42.736;23.346;2024-01-25T10:38:20;14.23;;;5.83;;
20623;SDS011;10471;42.736;23.346;2024-01-25T10:40:47;12.57;;;5.27;;
20623;SDS011;10471;42.736;23.346;2024-01-25T10:43:12;13.13;;;4.93;;
20623;SDS011;10471;42.736;23.346;2024-01-25T10:45:38;7.60;;;4.87;;
20623;SDS011;10471;42.736;23.346;2024-01-25T10:48:04;14.43;;;5.63;;
20623;SDS011;10471;42.736;23.346;2024-01-25T10:50:32;13.40;;;5.30;;
20623;SDS011;10471;42.736;23.346;2024-01-25T10:52:57;11.20;;;5.07;;
20623;SDS011;10471;42.736;23.346;2024-01-25T10:55:23;12.93;;;5.80;;
20623;SDS011;10471;42.736;23.346;2024-01-25T10:57:50;13.60;;;5.50;;
20623;SDS011;10471;42.736;23.346;2024-01-25T11:00:17;12.83;;;5.13;;
20623;SDS011;10471;42.736;23.346;2024-01-25T11:02:44;14.60;;;6.10;;
20623;SDS011;10471;42.736;23.346;2024-01-25T11:05:11;26.50;;;11.77;;
20623;SDS011;10471;42.736;23.346;2024-01-25T11:10:16;21.63;;;7.73;;
20623;SDS011;10471;42.736;23.346;2024-01-25T11:15:21;15.17;;;7.20;;
20623;SDS011;10471;42.736;23.346;2024-01-25T11:17:51;14.67;;;5.97;;
20623;SDS011;10471;42.736;23.346;2024-01-25T11:20:19;16.27;;;6.57;;
20623;SDS011;10471;42.736;23.346;2024-01-25T11:22:46;18.47;;;7.50;;
20623;SDS011;10471;42.736;23.346;2024-01-25T11:25:20;10.47;;;5.23;;
20623;SDS011;10471;42.736;23.346;2024-01-25T11:27:47;10.27;;;4.70;;
20623;SDS011;10471;42.736;23.346;2024-01-25T11:30:14;11.87;;;4.40;;
20623;SDS011;10471;42.736;23.346;2024-01-25T11:32:42;15.70;;;5.23;;
20623;SDS011;10471;42.736;23.346;2024-01-25T11:35:08;15.60;;;4.80;;
20623;SDS011;10471;42.736;23.346;2024-01-25T11:37:36;24.30;;;9.13;;
20623;SDS011;10471;42.736;23.346;2024-01-25T11:40:02;21.67;;;8.00;;
20623;SDS011;10471;42.736;23.346;2024-01-25T11:42:28;13.83;;;4.80;;
20623;SDS011;10471;42.736;23.346;2024-01-25T11:44:55;13.23;;;5.20;;
20623;SDS011;10471;42.736;23.346;2024-01-25T11:47:21;15.00;;;5.57;;
20623;SDS011;10471;42.736;23.346;2024-01-25T11:49:46;18.10;;;7.87;;
20623;SDS011;10471;42.736;23.346;2024-01-25T11:52:12;14.37;;;6.47;;
20623;SDS011;10471;42.736;23.346;2024-01-25T11:54:38;18.83;;;8.03;;
20623;SDS011;10471;42.736;23.346;2024-01-25T11:57:03;12.43;;;4.47;;
20623;SDS011;10471;42.736;23.346;2024-01-25T11:59:30;13.50;;;4.87;;
20623;SDS011;10471;42.736;23.346;2024-01-25T12:01:56;13.03;;;4.37;;
20623;SDS011;10471;42.736;23.346;2024-01-25T12:04:22;14.07;;;4.03;;
20623;SDS011;10471;42.736;23.346;2024-01-25T12:06:49;10.80;;;4.20;;
20623;SDS011;10471;42.736;23.346;2024-01-25T12:09:15;9.60;;;3.70;;
20623;SDS011;10471;42.736;23.346;2024-01-25T12:11:41;13.77;;;4.57;;
20623;SDS011;10471;42.736;23.346;2024-01-25T12:14:07;12.23;;;4.40;;
20623;SDS011;10471;42.736;23.346;2024-01-25T12:16:35;15.50;;;4.10;;
20623;SDS011;10471;42.736;23.346;2024-01-25T12:19:01;11.50;;;4.50;;
20623;SDS011;10471;42.736;23.346;2024-01-25T12:21:26;12.47;;;4.73;;
20623;SDS011;10471;42.736;23.346;2024-01-25T12:23:51;15.40;;;6.27;;
20623;SDS011;10471;42.736;23.346;2024-01-25T12:26:17;15.33;;;6.40;;
20623;SDS011;10471;42.736;23.346;2024-01-25T12:28:42;15.63;;;6.20;;
20623;SDS011;10471;42.736;23.346;2024-01-25T12:31:08;15.20;;;4.53;;
20623;SDS011;10471;42.736;23.346;2024-01-25T12:33:34;13.50;;;4.50;;
20623;SDS011;10471;42.736;23.346;2024-01-25T12:35:59;13.30;;;5.57;;
20623;SDS011;10471;42.736;23.346;2024-01-25T12:38:26;13.17;;;5.27;;
20623;SDS011;10471;42.736;23.346;2024-01-25T12:40:53;15.70;;;7.30;;
20623;SDS011;10471;42.736;23.346;2024-01-25T12:43:19;14.70;;;5.60;;
20623;SDS011;10471;42.736;23.346;2024-01-25T12:45:46;12.40;;;4.50;;
20623;SDS011;10471;42.736;23.346;2024-01-25T12:48:12;10.70;;;4.37;;
20623;SDS011;10471;42.736;23.346;2024-01-25T12:50:37;10.00;;;3.97;;
20623;SDS011;10471;42.736;23.346;2024-01-25T12:53:03;10.33;;;4.27;;
20623;SDS011;10471;42.736;23.346;2024-01-25T12:55:29;12.33;;;4.27;;
20623;SDS011;10471;42.736;23.346;2024-01-25T12:57:59;13.07;;;5.30;;
20623;SDS011;10471;42.736;23.346;2024-01-25T13:00:24;10.70;;;3.57;;
20623;SDS011;10471;42.736;23.346;2024-01-25T13:02:50;11.43;;;4.63;;
20623;SDS011;10471;42.736;23.346;2024-01-25T13:05:15;8.63;;;4.30;;
20623;SDS011;10471;42.736;23.346;2024-01-25T13:07:41;8.07;;;3.90;;
20623;SDS011;10471;42.736;23.346;2024-01-25T13:10:08;11.03;;;4.43;;
20623;SDS011;10471;42.736;23.346;2024-01-25T13:12:36;10.20;;;3.70;;
20623;SDS011;10471;42.736;23.346;2024-01-25T13:15:01;9.90;;;4.17;;
20623;SDS011;10471;42.736;23.346;2024-01-25T13:17:27;8.27;;;3.40;;
20623;SDS011;10471;42.736;23.346;2024-01-25T13:19:53;13.40;;;3.80;;
20623;SDS011;10471;42.736;23.346;2024-01-25T13:22:18;8.67;;;3.77;;
20623;SDS011;10471;42.736;23.346;2024-01-25T13:24:46;9.83;;;3.70;;
20623;SDS011;10471;42.736;23.346;2024-01-25T13:27:11;9.43;;;3.40;;
20623;SDS011;10471;42.736;23.346;2024-01-25T13:29:37;9.37;;;3.37;;
20623;SDS011;10471;42.736;23.346;2024-01-25T13:32:02;8.57;;;3.83;;
20623;SDS011;10471;42.736;23.346;2024-01-25T13:34:28;10.20;;;3.80;;
20623;SDS011;10471;42.736;23.346;2024-01-25T13:36:53;12.67;;;3.70;;
20623;SDS011;10471;42.736;23.346;2024-01-25T13:39:18;10.10;;;3.53;;
20623;SDS011;10471;42.736;23.346;2024-01-25T13:41:44;8.23;;;4.47;;
20623;SDS011;10471;42.736;23.346;2024-01-25T13:44:13;13.47;;;4.40;;
20623;SDS011;10471;42.736;23.346;2024-01-25T13:46:39;9.90;;;3.30;;
20623;SDS011;10471;42.736;23.346;2024-01-25T13:49:05;13.77;;;4.07;;
20623;SDS011;10471;42.736;23.346;2024-01-25T13:51:30;9.30;;;3.50;;
20623;SDS011;10471;42.736;23.346;2024-01-25T13:53:55;11.77;;;4.30;;
20623;SDS011;10471;42.736;23.346;2024-01-25T13:56:21;13.30;;;3.67;;
20623;SDS011;10471;42.736;23.346;2024-01-25T13:58:46;13.83;;;4.20;;
20623;SDS011;10471;42.736;23.346;2024-01-25T14:01:12;15.03;;;5.00;;
20623;SDS011;10471;42.736;23.346;2024-01-25T14:03:37;16.70;;;5.27;;
20623;SDS011;10471;42.736;23.346;2024-01-25T14:06:03;10.33;;;3.60;;
20623;SDS011;10471;42.736;23.346;2024-01-25T14:08:30;11.93;;;5.40;;
20623;SDS011;10471;42.736;23.346;2024-01-25T14:10:56;16.23;;;4.13;;
20623;SDS011;10471;42.736;23.346;2024-01-25T14:13:22;14.60;;;5.30;;
20623;SDS011;10471;42.736;23.346;2024-01-25T14:15:47;15.90;;;6.57;;
20623;SDS011;10471;42.736;23.346;2024-01-25T14:18:12;10.53;;;4.07;;
20623;SDS011;10471;42.736;23.346;2024-01-25T14:20:38;12.90;;;4.90;;